createdAt,value
2024-01-08T00:01:15.688Z,1.20
2024-01-08T00:06:19.286Z,0.89
2024-01-08T00:11:20.929Z,0.07
2024-01-08T00:16:22.550Z,0.78
2024-01-08T00:21:24.053Z,0.92
2024-01-08T00:26:26.048Z,0.14
2024-01-08T00:31:28.122Z,0.30
2024-01-08T00:36:29.976Z,0.58
2024-01-08T00:41:31.603Z,0.10
2024-01-08T00:46:33.132Z,-0.01
2024-01-08T00:51:34.672Z,0.53
2024-01-08T00:56:36.251Z,0.29
2024-01-08T01:01:37.778Z,0.26
2024-01-08T01:06:39.308Z,0.71
2024-01-08T01:11:40.846Z,0.53
2024-01-08T01:16:42.359Z,0.50
2024-01-08T01:21:43.857Z,0.09
2024-01-08T01:26:45.376Z,0.34
2024-01-08T01:31:46.950Z,-0.46
2024-01-08T01:36:49.576Z,-0.35
2024-01-08T01:41:53.887Z,-0.10
2024-01-08T01:46:55.460Z,-0.30
2024-01-08T01:51:57.310Z,-0.49
2024-01-08T01:57:01.030Z,-0.31
2024-01-08T02:02:02.639Z,0.06
2024-01-08T02:07:04.670Z,0.11
2024-01-08T02:12:07.106Z,0.10
2024-01-08T02:17:08.675Z,0.28
2024-01-08T02:22:10.203Z,0.55
2024-01-08T02:27:11.716Z,0.08
2024-01-08T02:32:14.783Z,0.14
2024-01-08T02:37:16.372Z,0.22
2024-01-08T02:42:19.594Z,0.51
2024-01-08T02:47:21.281Z,0.61
2024-01-08T02:52:22.827Z,-0.11
2024-01-08T02:57:24.333Z,0.06
2024-01-08T03:02:25.934Z,0.22
2024-01-08T03:07:27.577Z,0.40
2024-01-08T03:12:29.117Z,0.20
2024-01-08T03:17:30.683Z,0.33
2024-01-08T03:22:32.276Z,0.48
2024-01-08T03:27:33.778Z,0.41
2024-01-08T03:32:35.475Z,0.54
2024-01-08T03:37:37.236Z,1.03
2024-01-08T03:42:38.839Z,1.07
2024-01-08T03:47:41.279Z,0.43
2024-01-08T03:52:42.984Z,1.37
2024-01-08T03:57:44.699Z,0.32
2024-01-08T04:02:46.483Z,0.96
2024-01-08T04:07:48.109Z,0.56
2024-01-08T04:12:49.661Z,0.99
2024-01-08T04:17:52.012Z,0.29
2024-01-08T04:22:53.627Z,0.57
2024-01-08T04:27:55.231Z,1.05
2024-01-08T04:32:56.870Z,0.94
2024-01-08T04:37:58.423Z,1.13
2024-01-08T04:42:59.957Z,0.96
2024-01-08T04:48:01.550Z,0.84
2024-01-08T04:53:03.154Z,0.68
2024-01-08T04:58:06.870Z,1.22
2024-01-08T05:03:11.348Z,0.65
2024-01-08T05:08:12.927Z,0.63
2024-01-08T05:13:14.461Z,0.95
2024-01-08T05:18:16.056Z,0.74
2024-01-08T05:23:17.742Z,0.89
2024-01-08T05:28:19.280Z,1.10
2024-01-08T05:33:21.479Z,1.12
2024-01-08T05:38:23.379Z,1.65
2024-01-08T05:43:24.965Z,1.96
2024-01-08T05:48:26.702Z,2.74
2024-01-08T05:53:29.443Z,3.05
2024-01-08T05:58:33.689Z,3.56
2024-01-08T06:03:35.370Z,3.18
2024-01-08T06:08:38.564Z,2.53
2024-01-08T06:13:40.754Z,3.31
2024-01-08T06:18:42.636Z,2.84
2024-01-08T06:23:44.279Z,2.96
2024-01-08T06:28:45.798Z,2.99
2024-01-08T06:33:47.386Z,2.71
2024-01-08T06:38:48.998Z,3.27
2024-01-08T06:43:50.518Z,3.75
2024-01-08T06:48:52.374Z,2.84
2024-01-08T06:53:53.947Z,3.08
2024-01-08T06:58:55.454Z,3.58
2024-01-08T07:03:57.282Z,3.25
2024-01-08T07:08:58.796Z,1.76
2024-01-08T07:14:00.334Z,2.75
2024-01-08T07:19:02.054Z,3.11
2024-01-08T07:24:04.318Z,2.58
2024-01-08T07:29:05.833Z,2.85
2024-01-08T07:34:07.488Z,2.25
2024-01-08T07:39:09.048Z,2.29
2024-01-08T07:44:10.599Z,1.88
2024-01-08T07:49:12.307Z,1.60
2024-01-08T07:54:13.900Z,1.62
2024-01-08T07:59:15.465Z,1.76
2024-01-08T08:04:17.080Z,1.76
2024-01-08T08:09:18.662Z,1.59
2024-01-08T08:14:20.222Z,2.00
2024-01-08T08:19:24.242Z,1.64
2024-01-08T08:24:26.644Z,1.54
2024-01-08T08:29:29.855Z,1.75
2024-01-08T08:34:31.731Z,2.31
2024-01-08T08:39:33.282Z,1.93
2024-01-08T08:44:35.075Z,2.13
2024-01-08T08:49:36.683Z,1.68
2024-01-08T08:54:38.329Z,1.39
2024-01-08T08:59:40.435Z,1.53
2024-01-08T09:04:42.159Z,2.41
2024-01-08T09:09:43.798Z,2.36
2024-01-08T09:14:45.352Z,2.99
2024-01-08T09:19:51.606Z,2.56
2024-01-08T09:24:53.776Z,2.06
2024-01-08T09:29:55.335Z,2.69
2024-01-08T09:34:56.981Z,2.02
2024-01-08T09:39:58.556Z,2.66
2024-01-08T09:45:00.525Z,3.09
2024-01-08T09:50:02.053Z,2.75
2024-01-08T09:55:03.806Z,3.50
2024-01-08T10:00:06.839Z,3.74
2024-01-08T10:05:09.096Z,4.00
2024-01-08T10:10:10.907Z,4.04
2024-01-08T10:15:14.676Z,4.34
2024-01-08T10:20:16.680Z,3.76
2024-01-08T10:25:24.001Z,3.92
2024-01-08T10:30:27.137Z,4.99
2024-01-08T10:35:32.553Z,5.39
2024-01-08T10:40:34.705Z,5.08
2024-01-08T10:45:36.210Z,5.30
2024-01-08T10:50:41.055Z,4.85
2024-01-08T10:55:42.764Z,5.13
2024-01-08T11:00:44.310Z,5.20
2024-01-08T11:05:48.394Z,5.16
2024-01-08T11:10:50.901Z,5.39
2024-01-08T11:15:52.464Z,5.57
2024-01-08T11:20:54.272Z,4.21
2024-01-08T11:25:55.846Z,4.85
2024-01-08T11:31:16.239Z,5.02
2024-01-08T11:36:18.270Z,3.76
2024-01-08T11:41:19.927Z,5.00
2024-01-08T11:46:21.987Z,4.67
2024-01-08T11:51:23.689Z,4.87
2024-01-08T11:56:25.242Z,4.64
2024-01-08T12:01:28.538Z,5.37
2024-01-08T12:06:30.769Z,3.83
2024-01-08T12:11:32.401Z,4.64
2024-01-08T12:16:33.951Z,5.11
2024-01-08T12:21:43.493Z,5.13
2024-01-08T12:26:50.297Z,4.20
2024-01-08T12:31:57.118Z,3.52
2024-01-08T12:37:00.274Z,3.72
2024-01-08T12:42:08.139Z,3.97
2024-01-08T12:47:10.836Z,4.09
2024-01-08T12:52:12.530Z,4.67
2024-01-08T12:57:15.240Z,4.02
2024-01-08T13:02:16.934Z,4.71
2024-01-08T13:07:18.537Z,4.69
2024-01-08T13:12:20.246Z,4.65
2024-01-08T13:17:22.371Z,4.27
2024-01-08T13:22:23.888Z,3.47
2024-01-08T13:27:25.437Z,4.59
2024-01-08T13:32:26.978Z,4.15
2024-01-08T13:37:28.529Z,4.29
2024-01-08T13:42:30.070Z,4.52
2024-01-08T13:47:31.846Z,4.46
2024-01-08T13:52:33.507Z,4.43
2024-01-08T13:57:35.020Z,4.27
2024-01-08T14:02:36.843Z,4.14
2024-01-08T14:07:38.440Z,3.36
2024-01-08T14:12:39.967Z,3.75
2024-01-08T14:17:42.612Z,4.26
2024-01-08T14:22:44.241Z,4.03
2024-01-08T14:27:45.739Z,3.92
2024-01-08T14:32:47.462Z,3.52
2024-01-08T14:37:49.335Z,3.48
2024-01-08T14:42:51.255Z,3.72
2024-01-08T14:47:52.925Z,4.46
2024-01-08T14:52:54.614Z,4.50
2024-01-08T14:57:56.429Z,4.46
2024-01-08T15:02:58.067Z,4.74
2024-01-08T15:07:59.703Z,5.28
2024-01-08T15:13:01.284Z,4.84
2024-01-08T15:18:04.176Z,4.72
2024-01-08T15:23:06.116Z,4.32
2024-01-08T15:28:07.664Z,4.03
2024-01-08T15:33:09.233Z,4.12
2024-01-08T15:38:10.830Z,4.28
2024-01-08T15:43:12.372Z,4.93
2024-01-08T15:48:14.035Z,4.20
2024-01-08T15:53:18.740Z,4.21
2024-01-08T15:58:20.271Z,4.48
2024-01-08T16:03:21.864Z,4.83
2024-01-08T16:08:23.802Z,3.80
2024-01-08T16:13:25.363Z,3.38
2024-01-08T16:18:26.993Z,4.76
2024-01-08T16:23:28.567Z,4.52
2024-01-08T16:28:30.122Z,4.43
2024-01-08T16:33:31.758Z,4.67
2024-01-08T16:38:33.361Z,4.88
2024-01-08T16:43:34.904Z,4.51
2024-01-08T16:48:36.529Z,4.69
2024-01-08T16:53:38.171Z,4.90
2024-01-08T16:58:39.796Z,4.63
2024-01-08T17:03:41.415Z,4.67
2024-01-08T17:08:43.144Z,4.27
2024-01-08T17:13:44.784Z,4.53
2024-01-08T17:18:46.563Z,4.21
2024-01-08T17:23:48.279Z,4.36
2024-01-08T17:28:55.747Z,4.63
2024-01-08T17:33:57.482Z,4.59
2024-01-08T17:38:59.229Z,4.72
2024-01-08T17:44:00.866Z,4.70
2024-01-08T17:49:03.566Z,4.80
2024-01-08T17:54:05.111Z,4.44
2024-01-08T17:59:06.625Z,4.43
2024-01-08T18:04:08.638Z,4.90
2024-01-08T18:09:12.513Z,4.69
2024-01-08T18:14:15.989Z,4.77
2024-01-08T18:19:17.667Z,4.90
2024-01-08T18:24:24.357Z,4.97
2024-01-08T18:29:33.069Z,4.37
2024-01-08T18:34:35.055Z,4.52
2024-01-08T18:39:36.622Z,4.22
2024-01-08T18:44:39.354Z,4.71
2024-01-08T18:49:41.063Z,4.79
2024-01-08T18:54:42.653Z,4.96
2024-01-08T18:59:44.204Z,4.01
2024-01-08T19:04:45.863Z,4.81
2024-01-08T19:09:47.448Z,4.37
2024-01-08T19:14:49.425Z,5.00
2024-01-08T19:19:51.631Z,4.89
2024-01-08T19:24:53.283Z,5.22
2024-01-08T19:29:54.963Z,4.88
2024-01-08T19:34:56.529Z,4.85
2024-01-08T19:39:58.046Z,5.19
2024-01-08T19:44:59.574Z,4.95
2024-01-08T19:50:01.224Z,5.14
2024-01-08T19:55:02.803Z,5.10
2024-01-08T20:00:04.738Z,4.72
2024-01-08T20:05:09.866Z,4.64
2024-01-08T20:10:11.394Z,4.87
2024-01-08T20:15:14.078Z,4.91
2024-01-08T20:20:17.394Z,5.13
2024-01-08T20:25:22.302Z,5.12
2024-01-08T20:30:23.845Z,4.96
2024-01-08T20:35:25.413Z,4.59
2024-01-08T20:40:27.212Z,4.99
2024-01-08T20:45:28.798Z,4.74
2024-01-08T20:50:30.394Z,4.78
2024-01-08T20:55:32.047Z,4.90
2024-01-08T21:00:33.626Z,4.63
2024-01-08T21:05:35.249Z,4.63
2024-01-08T21:10:36.817Z,4.29
2024-01-08T21:15:38.433Z,4.67
2024-01-08T21:20:39.975Z,4.83
2024-01-08T21:25:42.173Z,4.57
2024-01-08T21:30:43.697Z,4.68
2024-01-08T21:35:45.422Z,4.47
2024-01-08T21:40:46.958Z,4.72
2024-01-08T21:45:48.470Z,4.60
2024-01-08T21:50:50.028Z,4.87
2024-01-08T21:55:51.586Z,4.86
2024-01-08T22:00:54.463Z,5.10
2024-01-08T22:05:56.394Z,4.71
2024-01-08T22:10:57.987Z,4.74
2024-01-08T22:15:59.500Z,4.76
2024-01-08T22:21:01.001Z,4.93
2024-01-08T22:26:03.029Z,4.66
2024-01-08T22:31:04.792Z,4.84
2024-01-08T22:36:06.453Z,5.02
2024-01-08T22:41:08.080Z,4.84
2024-01-08T22:46:09.766Z,4.43
2024-01-08T22:51:12.096Z,4.62
2024-01-08T22:56:13.643Z,4.76
2024-01-08T23:01:15.174Z,4.89
2024-01-08T23:06:16.833Z,4.93
2024-01-08T23:11:18.452Z,4.77
2024-01-08T23:16:19.983Z,4.67
2024-01-08T23:21:21.491Z,4.87
2024-01-08T23:26:23.032Z,4.86
2024-01-08T23:31:25.234Z,5.00
2024-01-08T23:36:27.249Z,4.37
2024-01-08T23:41:28.881Z,4.70
2024-01-08T23:46:30.417Z,4.92
2024-01-08T23:51:31.929Z,4.60
2024-01-08T23:56:33.832Z,5.03
